首页
METAR-TAF:

METAR-TAF

机场 :

Altenburg, 德国

纬度: 50-58N, 经度: 012-30E, 海拔: 195米

当前天气观测

该预报发布于29分钟前的11:50 UTC
风速8节,风向多变
温度 5°C
湿度 52%
气压 1010 hPa
能见度10公里或以上
1500米以下无云,无积雨云

METAR: EDAC 111150Z VRB08KT CAVOK 05/M04 Q1010

时间: 13:19 (12:19 UTC)

预报

该预报发布于1小时和19分钟前的11:00 UTC
预报有效从11日的 12点(UTC)到 11日的 21点(UTC)
风速8节,风向
能见度10公里或以上
散云层高于3000英尺
短暂存在
从 11日的 17点(UTC)到 11日的 21点(UTC)
能見度: 4500
多云层高于900英尺
小雨, 雪

TAF: EDAC 111100Z 1112/1121 18008KT 9999 SCT030 TEMPO 1117/1121 4500 -RASN BKN009

超过4000个机场的气象观测和天气预报(METAR&TAF报告)。

可查询的气象台以黄色和红色小点在地图上表示。

将鼠标移到小点上方,可查看气象台名称。

然后点击查看天气观测和预报。

如需切换地图:点击带黑十字的绿色按钮放大地图;点击带横线的绿色按钮缩小地图;或者点击绿色箭头查看邻近地区的地图。


METAR-TAF: